Time;durP1;ratioP1;P1;durP2;ratioP2;P2;SDS_P1;SDS_P2;PMS_P1;PMS_P2;Temp;Humidity;BMP_temperature;BMP_pressure;BME280_temperature;BME280_humidity;BME280_pressure;Samples;Min_cycle;Max_cycle;Signal;HPM_P1;HPM_P2
2020/12/17 00:00:32;;;;;;;19.77;10.90;;;;;;;7.30;100.00;98363.03;5034676;28;20218;-74
2020/12/17 00:02:59;;;;;;;18.80;9.80;;;;;;;7.21;100.00;98356.09;5034264;28;20225;-74
2020/12/17 00:05:26;;;;;;;21.57;10.53;;;;;;;7.19;100.00;98361.56;5033869;28;20207;-73
2020/12/17 00:07:54;;;;;;;24.10;10.70;;;;;;;7.32;100.00;98351.22;5034043;28;20225;-73
2020/12/17 00:10:20;;;;;;;18.27;10.53;;;;;;;7.40;100.00;98359.16;5034297;28;20288;-74
2020/12/17 00:12:48;;;;;;;17.40;9.77;;;;;;;7.34;100.00;98353.69;5031696;28;20216;-74
2020/12/17 00:15:16;;;;;;;19.07;9.73;;;;;;;7.25;100.00;98352.91;5032221;28;20267;-74
2020/12/17 00:17:45;;;;;;;21.67;9.93;;;;;;;7.24;100.00;98345.94;5030381;28;20608;-74
2020/12/17 00:20:12;;;;;;;18.23;9.70;;;;;;;7.42;100.00;98343.06;5028911;28;20695;-74
2020/12/17 00:22:40;;;;;;;19.23;9.70;;;;;;;7.46;100.00;98341.72;5027293;28;20233;-74
2020/12/17 00:25:08;;;;;;;20.50;9.53;;;;;;;7.47;100.00;98338.84;5030961;28;20570;-74
2020/12/17 00:27:35;;;;;;;17.47;9.80;;;;;;;7.51;100.00;98337.53;5032815;28;20637;-74
2020/12/17 00:30:03;;;;;;;17.40;9.17;;;;;;;7.41;100.00;98352.03;5033734;28;20249;-74
2020/12/17 00:32:30;;;;;;;15.97;9.40;;;;;;;7.38;100.00;98342.56;5033259;28;20214;-74
2020/12/17 00:34:57;;;;;;;18.67;10.10;;;;;;;7.42;100.00;98337.75;5033472;28;20205;-74
2020/12/17 00:37:28;;;;;;;18.43;9.03;;;;;;;7.40;100.00;98337.91;5033509;28;20755;-74
2020/12/17 00:39:55;;;;;;;18.07;9.27;;;;;;;7.35;100.00;98340.25;5033503;28;20210;-74
2020/12/17 00:42:23;;;;;;;14.07;8.13;;;;;;;7.29;100.00;98343.59;5033536;28;20212;-73
2020/12/17 00:44:50;;;;;;;21.57;10.00;;;;;;;7.27;100.00;98342.13;5034153;28;20238;-74
2020/12/17 00:47:17;;;;;;;17.97;9.00;;;;;;;7.18;100.00;98333.38;5033768;28;20237;-74
2020/12/17 00:49:45;;;;;;;16.80;8.87;;;;;;;7.13;100.00;98334.88;5032841;28;20212;-74
2020/12/17 00:52:11;;;;;;;14.30;8.30;;;;;;;7.02;100.00;98343.19;5033250;28;20240;-73
2020/12/17 00:54:39;;;;;;;17.43;9.50;;;;;;;7.08;100.00;98340.69;5033480;28;20252;-73
2020/12/17 00:57:06;;;;;;;16.63;8.90;;;;;;;6.99;100.00;98344.38;5030775;28;20248;-74
2020/12/17 00:59:34;;;;;;;13.50;8.27;;;;;;;6.96;100.00;98352.66;5033451;28;20284;-73
2020/12/17 01:02:00;;;;;;;20.20;9.20;;;;;;;7.05;100.00;98356.16;5032065;28;20761;-75
2020/12/17 01:04:27;;;;;;;16.73;8.87;;;;;;;6.86;100.00;98344.06;5032393;28;20198;-75
2020/12/17 01:06:54;;;;;;;16.80;8.90;;;;;;;6.88;100.00;98352.69;5029645;28;20256;-75
2020/12/17 01:09:21;;;;;;;15.63;8.60;;;;;;;7.01;100.00;98342.38;5036224;28;20202;-73
2020/12/17 01:11:47;;;;;;;14.83;8.50;;;;;;;7.08;100.00;98353.13;5033730;28;20205;-76
2020/12/17 01:14:14;;;;;;;14.90;8.63;;;;;;;7.02;100.00;98356.47;5033530;28;20659;-74
2020/12/17 01:16:46;;;;;;;14.97;8.77;;;;;;;7.05;100.00;98348.19;5033695;28;20685;-74
2020/12/17 01:19:12;;;;;;;16.67;8.43;;;;;;;7.08;100.00;98353.97;5032788;28;20190;-74
2020/12/17 01:21:39;;;;;;;15.27;8.50;;;;;;;7.12;100.00;98352.63;5033486;28;20264;-74
2020/12/17 01:24:06;;;;;;;14.33;8.00;;;;;;;7.03;100.00;98353.66;5033269;28;20208;-75
2020/12/17 01:26:33;;;;;;;14.07;8.40;;;;;;;7.04;100.00;98350.00;5032914;28;20561;-74
2020/12/17 01:29:00;;;;;;;15.73;8.47;;;;;;;6.90;100.00;98349.88;5033101;28;20229;-74
2020/12/17 01:31:26;;;;;;;16.90;7.87;;;;;;;6.87;100.00;98345.75;5032816;28;20202;-75
2020/12/17 01:33:54;;;;;;;15.50;8.30;;;;;;;6.79;100.00;98350.22;5033115;28;20202;-75
2020/12/17 01:36:21;;;;;;;12.87;7.83;;;;;;;6.89;100.00;98351.69;5032974;28;20562;-73
2020/12/17 01:38:48;;;;;;;15.80;9.37;;;;;;;6.83;100.00;98346.22;5031715;28;20218;-73
2020/12/17 01:41:15;;;;;;;13.40;7.60;;;;;;;6.80;100.00;98358.00;5030594;28;20226;-75
2020/12/17 01:43:44;;;;;;;12.63;8.00;;;;;;;6.78;100.00;98360.00;5032837;28;20208;-75
2020/12/17 01:46:11;;;;;;;14.37;7.87;;;;;;;6.72;100.00;98363.34;5031892;28;20218;-74
2020/12/17 01:48:39;;;;;;;15.63;8.10;;;;;;;6.63;100.00;98364.34;5031802;28;20784;-74
2020/12/17 01:51:07;;;;;;;14.40;7.57;;;;;;;6.58;100.00;98368.47;5032477;28;20219;-75
2020/12/17 01:53:38;;;;;;;14.87;8.47;;;;;;;6.67;100.00;98368.31;5032208;28;20206;-74
2020/12/17 01:56:09;;;;;;;14.30;7.57;;;;;;;6.61;100.00;98376.91;5029383;28;20209;-75
2020/12/17 01:58:41;;;;;;;16.80;8.50;;;;;;;6.70;100.00;98383.88;5031588;28;20232;-74
2020/12/17 02:01:11;;;;;;;14.97;8.83;;;;;;;6.83;100.00;98372.75;5031166;28;20216;-74
2020/12/17 02:03:39;;;;;;;17.13;8.77;;;;;;;6.94;100.00;98381.19;5031632;28;20198;-75
2020/12/17 02:49:59;;;;;;;19.03;8.03;;;;;;;6.33;100.00;98378.28;5027141;28;20195;-74
2020/12/17 02:52:26;;;;;;;15.70;8.87;;;;;;;6.23;100.00;98385.56;5031466;28;20211;-74
2020/12/17 02:54:53;;;;;;;17.57;8.10;;;;;;;6.09;100.00;98380.91;5031261;28;20204;-75
2020/12/17 02:57:19;;;;;;;15.57;8.23;;;;;;;6.14;100.00;98381.22;5032286;28;20718;-74
2020/12/17 02:59:46;;;;;;;14.93;8.83;;;;;;;6.16;100.00;98383.72;5035250;28;20212;-74
2020/12/17 03:02:13;;;;;;;15.10;8.37;;;;;;;6.25;100.00;98383.56;5035605;28;20271;-73
2020/12/17 03:04:40;;;;;;;13.80;7.43;;;;;;;6.20;100.00;98388.50;5035372;28;20199;-75
2020/12/17 03:07:07;;;;;;;20.73;9.57;;;;;;;6.18;100.00;98382.56;5035688;28;20259;-74
2020/12/17 03:09:34;;;;;;;14.90;7.67;;;;;;;6.30;100.00;98383.06;5035082;28;20209;-74
2020/12/17 03:12:01;;;;;;;15.03;8.00;;;;;;;6.22;100.00;98383.06;5035085;28;20295;-74
2020/12/17 03:14:27;;;;;;;16.23;8.13;;;;;;;6.15;100.00;98388.19;5035045;28;20205;-74
2020/12/17 03:16:54;;;;;;;14.43;8.60;;;;;;;6.13;100.00;98387.53;5035143;28;20204;-74
2020/12/17 03:19:21;;;;;;;15.90;8.30;;;;;;;6.04;100.00;98387.69;5034213;28;20219;-75
2020/12/17 03:21:51;;;;;;;13.60;8.03;;;;;;;6.07;100.00;98390.84;5034442;28;20716;-74
2020/12/17 03:24:18;;;;;;;12.43;7.13;;;;;;;6.03;100.00;98389.50;5033281;28;20266;-74
2020/12/17 03:26:45;;;;;;;17.37;8.50;;;;;;;5.95;100.00;98392.13;5029171;28;20201;-75
2020/12/17 03:29:12;;;;;;;15.43;7.47;;;;;;;6.03;100.00;98396.59;5034954;28;20215;-75
2020/12/17 03:31:39;;;;;;;15.23;7.80;;;;;;;6.05;100.00;98392.00;5029897;28;20205;-75
2020/12/17 03:34:06;;;;;;;12.80;7.73;;;;;;;5.93;100.00;98393.28;5032107;28;20208;-74
2020/12/17 03:36:32;;;;;;;12.47;7.70;;;;;;;6.09;100.00;98401.28;5034685;28;20194;-75
2020/12/17 03:38:59;;;;;;;15.03;7.33;;;;;;;6.01;100.00;98402.09;5034707;28;20266;-75
2020/12/17 03:41:27;;;;;;;13.67;8.03;;;;;;;5.79;100.00;98400.00;5033229;28;20228;-74
2020/12/17 03:43:53;;;;;;;14.63;7.60;;;;;;;5.90;100.00;98393.63;5033767;28;20219;-75
2020/12/17 03:46:20;;;;;;;14.90;7.60;;;;;;;5.85;100.00;98396.72;5032537;28;20207;-73
2020/12/17 03:48:47;;;;;;;15.50;8.27;;;;;;;6.00;100.00;98391.66;5029306;28;20244;-73
2020/12/17 03:51:14;;;;;;;17.23;8.47;;;;;;;5.96;100.00;98398.25;5033942;28;20205;-73
2020/12/17 03:53:40;;;;;;;18.03;8.83;;;;;;;5.88;100.00;98396.41;5034248;28;20215;-74
2020/12/17 03:56:07;;;;;;;16.50;8.27;;;;;;;5.96;100.00;98396.47;5034099;28;20217;-74
2020/12/17 03:58:35;;;;;;;14.83;9.23;;;;;;;5.98;100.00;98394.47;5034513;28;20585;-74
2020/12/17 04:01:02;;;;;;;17.17;8.53;;;;;;;6.05;100.00;98392.81;5033654;28;20235;-73
2020/12/17 04:03:28;;;;;;;15.23;8.07;;;;;;;6.12;100.00;98391.19;5026929;28;20202;-74
2020/12/17 04:05:55;;;;;;;17.60;9.47;;;;;;;6.27;100.00;98394.84;5030013;28;20208;-74
2020/12/17 04:08:22;;;;;;;19.60;9.27;;;;;;;6.14;100.00;98399.78;5033537;28;20221;-74
2020/12/17 04:10:49;;;;;;;16.50;9.00;;;;;;;6.15;100.00;98397.97;5037576;28;20250;-74
2020/12/17 04:13:15;;;;;;;12.83;8.33;;;;;;;6.12;100.00;98393.81;5035169;28;20213;-74
2020/12/17 04:15:43;;;;;;;20.57;9.70;;;;;;;6.12;100.00;98396.47;5035004;28;20708;-74
2020/12/17 04:18:10;;;;;;;15.97;8.77;;;;;;;5.98;100.00;98401.56;5034866;28;20221;-74
2020/12/17 04:20:37;;;;;;;16.43;8.90;;;;;;;6.04;100.00;98403.59;5033844;28;20224;-73
2020/12/17 04:23:03;;;;;;;16.43;9.07;;;;;;;5.98;100.00;98402.41;5034205;28;20194;-73
2020/12/17 04:25:31;;;;;;;18.33;8.80;;;;;;;6.07;100.00;98401.44;5031244;28;20209;-73
2020/12/17 04:27:57;;;;;;;17.47;9.33;;;;;;;6.06;100.00;98397.13;5034135;28;20228;-73
2020/12/17 04:30:24;;;;;;;15.50;8.73;;;;;;;6.04;100.00;98403.59;5033823;28;20658;-74
2020/12/17 04:32:52;;;;;;;15.27;8.80;;;;;;;6.11;100.00;98399.28;5033947;28;20212;-73
2020/12/17 04:35:19;;;;;;;17.77;9.13;;;;;;;6.16;100.00;98403.13;5033721;28;20556;-73
2020/12/17 04:37:45;;;;;;;17.07;9.60;;;;;;;6.22;100.00;98397.16;5033754;28;20231;-73
2020/12/17 04:40:12;;;;;;;22.03;10.07;;;;;;;6.26;100.00;98405.59;5037697;28;20666;-73
2020/12/17 04:42:39;;;;;;;19.00;10.63;;;;;;;6.16;100.00;98403.13;5033930;28;20207;-73
2020/12/17 04:45:06;;;;;;;22.83;9.77;;;;;;;6.21;100.00;98405.25;5033240;28;20208;-72
2020/12/17 04:47:33;;;;;;;20.17;10.00;;;;;;;6.14;100.00;98402.44;5033231;28;20613;-73
2020/12/17 04:50:06;;;;;;;24.33;10.80;;;;;;;6.12;100.00;98396.47;5033482;28;20200;-73
2020/12/17 04:52:34;;;;;;;20.90;10.60;;;;;;;6.18;100.00;98390.50;5031522;28;20242;-73
2020/12/17 04:55:03;;;;;;;21.97;10.67;;;;;;;6.18;100.00;98385.22;5033341;28;20209;-74
2020/12/17 04:57:31;;;;;;;22.33;10.77;;;;;;;6.23;100.00;98390.84;5033739;28;20225;-74
2020/12/17 04:59:58;;;;;;;21.00;9.90;;;;;;;6.21;100.00;98394.66;5033477;28;20300;-73
2020/12/17 05:02:25;;;;;;;21.40;11.03;;;;;;;6.28;100.00;98385.88;5033225;28;20617;-73
2020/12/17 05:04:53;;;;;;;23.27;11.57;;;;;;;6.32;100.00;98397.81;5033539;28;20736;-73
2020/12/17 05:07:22;;;;;;;22.00;11.20;;;;;;;6.33;100.00;98388.88;5032791;28;22039;-73
2020/12/17 05:09:50;;;;;;;26.40;11.90;;;;;;;6.30;100.00;98391.03;5028530;28;20212;-72
2020/12/17 05:12:18;;;;;;;26.43;11.83;;;;;;;6.42;100.00;98392.34;5024820;28;20201;-73
2020/12/17 05:14:45;;;;;;;24.60;12.17;;;;;;;6.35;100.00;98396.66;5033118;28;20216;-73
2020/12/17 05:17:12;;;;;;;23.57;10.93;;;;;;;6.45;100.00;98402.63;5030768;28;20231;-73
2020/12/17 05:19:42;;;;;;;23.40;11.37;;;;;;;6.27;100.00;98404.59;5032045;28;20209;-73
2020/12/17 05:22:12;;;;;;;24.90;10.43;;;;;;;6.27;100.00;98416.03;5032112;28;20245;-74
2020/12/17 05:24:43;;;;;;;22.87;10.40;;;;;;;6.22;100.00;98426.31;5027316;28;20201;-73
2020/12/17 05:27:10;;;;;;;25.07;11.80;;;;;;;6.22;100.00;98420.16;5032632;28;20234;-74
2020/12/17 05:29:38;;;;;;;23.43;11.10;;;;;;;6.18;100.00;98445.31;5033137;28;20204;-72
2020/12/17 05:32:05;;;;;;;21.10;10.93;;;;;;;6.18;100.00;98446.16;5032315;28;20254;-73
2020/12/17 05:34:32;;;;;;;21.10;10.63;;;;;;;6.23;100.00;98443.84;5032767;28;20201;-72
2020/12/17 05:37:00;;;;;;;22.70;11.63;;;;;;;6.20;100.00;98448.66;5032037;28;20200;-73
2020/12/17 05:39:27;;;;;;;26.57;11.17;;;;;;;6.29;100.00;98448.50;5032582;28;20200;-73
2020/12/17 05:41:56;;;;;;;20.77;10.07;;;;;;;6.41;100.00;98449.00;5031878;28;20270;-73
2020/12/17 05:44:27;;;;;;;26.00;11.27;;;;;;;6.46;100.00;98444.88;5031830;28;20209;-73
2020/12/17 05:46:54;;;;;;;22.20;11.03;;;;;;;6.44;100.00;98451.34;5032258;28;20691;-73
2020/12/17 05:49:22;;;;;;;22.67;9.90;;;;;;;6.42;100.00;98448.84;5032820;28;20197;-73
2020/12/17 05:51:50;;;;;;;31.33;11.30;;;;;;;6.51;100.00;98447.88;5032007;28;20661;-73
2020/12/17 05:54:22;;;;;;;21.67;10.73;;;;;;;6.50;100.00;98450.69;5032165;28;20645;-73
2020/12/17 05:56:50;;;;;;;23.83;10.67;;;;;;;6.56;100.00;98456.16;5032234;28;20213;-73
2020/12/17 05:59:23;;;;;;;25.97;10.97;;;;;;;6.51;100.00;98452.34;5032337;28;20256;-74
2020/12/17 06:01:50;;;;;;;23.53;11.77;;;;;;;6.52;100.00;98446.03;5032214;28;20370;-74
2020/12/17 06:04:17;;;;;;;20.40;10.20;;;;;;;6.46;100.00;98449.34;5032194;28;20239;-74
2020/12/17 06:06:48;;;;;;;25.87;11.70;;;;;;;6.41;100.00;98463.13;5031743;28;20210;-73
2020/12/17 06:09:21;;;;;;;22.07;10.20;;;;;;;6.52;100.00;98460.13;5030738;28;20200;-72
2020/12/17 06:11:49;;;;;;;22.07;10.53;;;;;;;6.44;100.00;98468.06;5031976;28;20539;-72
2020/12/17 06:14:17;;;;;;;28.87;11.40;;;;;;;6.29;100.00;98468.88;5033214;28;20205;-77
2020/12/17 06:16:44;;;;;;;24.47;9.87;;;;;;;6.32;100.00;98476.50;5032521;28;20210;-76
2020/12/17 06:19:20;;;;;;;17.20;8.87;;;;;;;6.31;100.00;98478.34;5032153;28;20587;-76
2020/12/17 06:21:47;;;;;;;22.90;9.67;;;;;;;6.44;100.00;98476.00;5031508;28;20688;-76
2020/12/17 06:24:14;;;;;;;18.90;9.20;;;;;;;6.43;100.00;98479.66;5032872;28;20669;-74
2020/12/17 06:26:41;;;;;;;18.57;8.47;;;;;;;6.49;100.00;98484.31;5025734;28;20220;-75
2020/12/17 06:29:19;;;;;;;17.33;8.30;;;;;;;6.46;100.00;98489.97;5027512;28;20793;-74
2020/12/17 06:31:57;;;;;;;13.83;7.70;;;;;;;6.47;100.00;98483.66;5033140;28;20259;-75
2020/12/17 06:34:24;;;;;;;18.57;8.27;;;;;;;6.43;100.00;98479.66;5033332;28;20627;-75
2020/12/17 06:36:57;;;;;;;18.53;8.47;;;;;;;6.43;100.00;98487.63;5031503;28;20582;-75
2020/12/17 06:39:24;;;;;;;12.77;7.80;;;;;;;6.35;100.00;98489.44;5033587;28;20213;-75
2020/12/17 06:41:51;;;;;;;13.77;7.10;;;;;;;6.28;100.00;98491.06;5030718;28;20229;-80
2020/12/17 06:44:35;;;;;;;15.40;7.10;;;;;;;6.31;100.00;98482.78;5031524;28;20219;-76
2020/12/17 06:47:04;;;;;;;12.83;6.30;;;;;;;6.33;100.00;98496.69;5028080;28;20382;-82
2020/12/17 06:49:32;;;;;;;10.43;6.23;;;;;;;6.35;100.00;98495.53;5034221;28;20214;-76
2020/12/17 06:52:04;;;;;;;11.90;5.60;;;;;;;6.35;100.00;98506.16;5033985;28;20259;-76
2020/12/17 06:54:37;;;;;;;8.50;5.33;;;;;;;6.48;100.00;98500.38;5026979;28;20206;-75
2020/12/17 06:57:06;;;;;;;11.47;5.40;;;;;;;6.38;100.00;98508.50;5032461;28;20354;-77
2020/12/17 06:59:33;;;;;;;8.53;5.03;;;;;;;6.56;100.00;98517.16;5031716;28;20662;-76
2020/12/17 07:02:00;;;;;;;10.87;4.43;;;;;;;6.61;100.00;98512.16;5031605;28;20590;-76
2020/12/17 07:04:46;;;;;;;7.90;4.17;;;;;;;6.69;100.00;98519.28;5032369;28;20699;-78
2020/12/17 07:07:18;;;;;;;7.73;4.03;;;;;;;6.86;100.00;98513.84;5032059;28;20295;-75
2020/12/17 07:09:47;;;;;;;9.20;4.43;;;;;;;6.95;100.00;98520.00;5036496;28;20663;-77
2020/12/17 07:12:19;;;;;;;8.20;4.23;;;;;;;6.99;100.00;98526.59;5029983;28;20209;-76
2020/12/17 07:14:46;;;;;;;7.37;4.00;;;;;;;7.05;100.00;98529.44;5031693;28;20211;-77
2020/12/17 07:17:13;;;;;;;7.63;4.40;;;;;;;7.10;100.00;98537.72;5030579;28;20581;-74
2020/12/17 07:19:41;;;;;;;7.33;4.57;;;;;;;7.04;100.00;98541.06;5027243;28;20209;-77
2020/12/17 07:22:11;;;;;;;6.73;3.90;;;;;;;7.03;100.00;98543.88;5031437;28;20226;-81
2020/12/17 07:24:40;;;;;;;7.23;3.93;;;;;;;7.02;100.00;98544.88;5024807;28;20229;-76
2020/12/17 07:27:10;;;;;;;7.03;4.03;;;;;;;7.06;100.00;98548.84;5039236;28;20317;-81
2020/12/17 07:29:43;;;;;;;10.03;4.90;;;;;;;7.05;100.00;98552.50;5046077;28;20224;-80
2020/12/17 07:32:32;;;;;;;6.43;3.87;;;;;;;7.04;100.00;98550.81;5040007;28;20563;-77
2020/12/17 07:35:15;;;;;;;7.17;4.30;;;;;;;7.00;100.00;98547.69;5037415;28;20258;-75
2020/12/17 07:37:43;;;;;;;7.60;3.97;;;;;;;7.04;100.00;98553.47;5036566;28;20234;-77
2020/12/17 07:40:22;;;;;;;9.80;5.57;;;;;;;7.03;100.00;98549.16;5039150;28;20200;-78
2020/12/17 07:42:59;;;;;;;8.27;4.23;;;;;;;7.03;100.00;98551.81;5035131;28;20607;-78
2020/12/17 07:45:47;;;;;;;7.73;4.03;;;;;;;6.96;100.00;98556.16;5040515;28;20198;-82
2020/12/17 07:48:43;;;;;;;8.10;3.93;;;;;;;7.26;100.00;98558.94;5036306;28;20275;-77
2020/12/17 07:51:36;;;;;;;8.37;2.90;;;;;;;7.60;100.00;98572.88;5051392;28;20293;-78
2020/12/17 07:54:07;;;;;;;6.10;2.87;;;;;;;7.74;100.00;98572.19;5049372;28;20210;-76
2020/12/17 07:56:34;;;;;;;4.27;2.53;;;;;;;8.07;100.00;98571.06;5039084;28;20206;-77
2020/12/17 07:59:07;;;;;;;5.73;2.63;;;;;;;8.33;100.00;98581.50;5034957;28;20599;-77
2020/12/17 08:01:34;;;;;;;6.97;2.50;;;;;;;8.58;100.00;98581.19;5031881;28;20683;-77
2020/12/17 08:04:01;;;;;;;3.27;2.47;;;;;;;8.53;100.00;98594.19;5035042;28;20270;-77
2020/12/17 08:06:29;;;;;;;5.40;2.50;;;;;;;8.56;100.00;98595.66;5034925;28;20211;-81
2020/12/17 08:08:58;;;;;;;3.63;2.37;;;;;;;8.68;100.00;98594.28;5036910;28;20234;-77
2020/12/17 08:11:27;;;;;;;3.70;2.50;;;;;;;8.58;100.00;98597.16;5040405;28;20204;-78
2020/12/17 08:14:01;;;;;;;5.63;2.70;;;;;;;8.46;100.00;98600.38;5037703;28;20203;-81
2020/12/17 08:16:28;;;;;;;4.07;2.40;;;;;;;8.53;100.00;98593.38;5039449;28;20201;-81
2020/12/17 08:18:56;;;;;;;4.63;2.40;;;;;;;8.40;100.00;98599.25;5039642;28;20309;-79
2020/12/17 08:21:23;;;;;;;7.90;2.57;;;;;;;8.28;100.00;98597.13;5037369;28;20310;-79
2020/12/17 08:23:50;;;;;;;4.07;2.30;;;;;;;8.33;100.00;98595.59;5039241;28;20542;-78
2020/12/17 08:26:22;;;;;;;4.83;2.30;;;;;;;8.51;100.00;98606.00;5036988;28;20234;-78
2020/12/17 08:28:50;;;;;;;6.57;2.47;;;;;;;8.62;100.00;98595.00;5035351;28;20900;-77
2020/12/17 08:31:21;;;;;;;2.90;2.10;;;;;;;8.73;100.00;98603.38;5032870;28;20205;-77
2020/12/17 08:33:50;;;;;;;3.37;2.10;;;;;;;8.78;100.00;98606.34;5034281;28;20199;-77
2020/12/17 08:36:20;;;;;;;2.83;2.20;;;;;;;8.67;100.00;98598.78;5034477;28;20202;-77
2020/12/17 08:38:55;;;;;;;2.67;2.00;;;;;;;8.68;100.00;98596.94;5034584;28;20234;-76
2020/12/17 08:41:27;;;;;;;3.53;2.00;;;;;;;8.83;100.00;98603.19;5032247;28;20228;-77
2020/12/17 08:43:56;;;;;;;3.77;2.17;;;;;;;8.87;100.00;98604.47;5034560;28;20595;-76
2020/12/17 08:46:27;;;;;;;3.40;2.00;;;;;;;8.74;100.00;98613.06;5034711;28;20258;-80
2020/12/17 08:48:55;;;;;;;4.37;1.97;;;;;;;9.00;100.00;98602.91;5034299;28;20226;-79
2020/12/17 08:51:23;;;;;;;4.03;1.50;;;;;;;8.97;100.00;98605.91;5035080;28;20213;-75
2020/12/17 08:53:50;;;;;;;3.20;2.00;;;;;;;9.02;100.00;98608.88;5033569;28;20219;-76
2020/12/17 08:56:18;;;;;;;3.80;1.63;;;;;;;8.93;100.00;98606.44;5031834;28;20196;-75
2020/12/17 08:58:49;;;;;;;2.43;1.57;;;;;;;9.01;100.00;98604.56;5028039;28;20273;-78
2020/12/17 09:01:18;;;;;;;3.13;1.93;;;;;;;9.16;100.00;98612.59;5034211;28;20228;-78
2020/12/17 09:03:46;;;;;;;4.03;2.13;;;;;;;9.09;100.00;98614.31;5036910;28;20211;-80
2020/12/17 09:06:14;;;;;;;3.53;2.50;;;;;;;9.15;100.00;98622.44;5031835;28;20191;-80
2020/12/17 09:08:41;;;;;;;4.50;1.70;;;;;;;8.97;100.00;98629.03;5037683;28;20630;-81
2020/12/17 09:11:31;;;;;;;3.83;1.80;;;;;;;8.97;100.00;98637.00;5035856;28;20214;-75
2020/12/17 09:14:03;;;;;;;3.73;1.80;;;;;;;8.93;100.00;98636.53;5033665;28;20207;-76
2020/12/17 09:16:32;;;;;;;3.63;1.87;;;;;;;9.03;100.00;98649.66;5029234;28;20678;-76
2020/12/17 09:19:00;;;;;;;3.30;1.67;;;;;;;8.85;100.00;98647.25;5031545;28;20219;-74
2020/12/17 09:21:28;;;;;;;2.07;1.67;;;;;;;9.00;100.00;98642.84;5032595;28;20226;-75
2020/12/17 09:23:59;;;;;;;3.20;2.03;;;;;;;8.93;100.00;98641.88;5033218;28;20207;-75
2020/12/17 09:26:26;;;;;;;4.57;2.43;;;;;;;8.89;100.00;98653.84;5033214;28;20206;-76
2020/12/17 09:28:56;;;;;;;4.53;2.20;;;;;;;8.84;100.00;98655.41;5032645;28;20247;-76
2020/12/17 09:31:25;;;;;;;4.70;2.47;;;;;;;8.83;100.00;98648.44;5032977;28;20309;-76
2020/12/17 09:34:03;;;;;;;3.73;2.67;;;;;;;8.73;100.00;98658.47;5033512;28;20241;-75
2020/12/17 09:36:30;;;;;;;3.80;2.37;;;;;;;8.63;100.00;98663.97;5034143;28;20191;-77
2020/12/17 09:39:00;;;;;;;4.57;2.50;;;;;;;8.57;100.00;98661.19;5032489;28;20246;-75
2020/12/17 09:41:27;;;;;;;4.23;2.53;;;;;;;8.30;100.00;98664.25;5030592;28;20240;-78
2020/12/17 09:43:54;;;;;;;3.47;2.33;;;;;;;8.61;100.00;98665.97;5034306;28;20681;-74
2020/12/17 09:46:21;;;;;;;3.60;2.20;;;;;;;8.70;100.00;98669.44;5031235;28;20206;-74
2020/12/17 09:48:48;;;;;;;5.50;2.73;;;;;;;8.75;100.00;98672.41;5033632;28;20268;-75
2020/12/17 09:51:20;;;;;;;3.40;2.47;;;;;;;8.86;100.00;98674.69;5030479;28;20675;-81
2020/12/17 09:54:00;;;;;;;2.73;2.07;;;;;;;9.01;100.00;98670.28;5018100;28;20237;-75
2020/12/17 09:56:26;;;;;;;3.83;2.40;;;;;;;8.98;100.00;98673.31;5035181;28;20208;-76
2020/12/17 09:58:53;;;;;;;3.10;2.30;;;;;;;9.29;100.00;98666.13;5036163;28;20227;-78
2020/12/17 10:01:20;;;;;;;5.13;2.23;;;;;;;9.31;100.00;98672.09;5031629;28;20306;-83
2020/12/17 10:03:47;;;;;;;3.70;2.00;;;;;;;9.41;100.00;98676.19;5031699;28;20211;-77
2020/12/17 10:06:15;;;;;;;2.90;1.90;;;;;;;9.67;100.00;98681.13;5032570;28;20310;-85
2020/12/17 10:08:42;;;;;;;4.90;2.20;;;;;;;9.82;100.00;98674.88;5032623;28;20580;-77
2020/12/17 10:11:09;;;;;;;4.90;2.10;;;;;;;10.04;100.00;98674.00;5030190;28;20196;-79
2020/12/17 10:13:36;;;;;;;3.83;2.10;;;;;;;10.45;100.00;98677.09;5038458;28;20206;-78
2020/12/17 10:16:03;;;;;;;3.70;2.00;;;;;;;10.38;100.00;98678.03;5033171;28;20548;-78
2020/12/17 10:18:30;;;;;;;3.27;1.77;;;;;;;10.43;100.00;98673.78;5025638;28;20596;-78
2020/12/17 10:20:57;;;;;;;4.37;1.57;;;;;;;10.77;100.00;98674.03;5032467;28;20256;-80
2020/12/17 10:23:25;;;;;;;3.13;1.53;;;;;;;10.95;100.00;98672.63;5032253;28;20599;-76
2020/12/17 10:25:52;;;;;;;3.53;2.03;;;;;;;11.06;100.00;98684.69;5031941;28;20216;-74
2020/12/17 10:28:18;;;;;;;3.03;1.97;;;;;;;10.80;100.00;98682.50;5027501;28;20290;-76
2020/12/17 10:30:45;;;;;;;4.97;2.10;;;;;;;10.98;100.00;98674.94;5030846;28;20201;-77
2020/12/17 10:33:12;;;;;;;2.63;1.83;;;;;;;11.24;100.00;98680.59;5030476;28;20641;-75
2020/12/17 10:35:39;;;;;;;2.80;1.90;;;;;;;11.12;100.00;98670.56;5031717;28;20196;-76
2020/12/17 10:38:05;;;;;;;2.40;1.60;;;;;;;11.30;100.00;98665.63;5033083;28;20231;-75
2020/12/17 10:40:33;;;;;;;4.13;1.90;;;;;;;11.36;100.00;98664.91;5027354;28;20282;-77
2020/12/17 10:43:00;;;;;;;2.40;1.30;;;;;;;11.21;100.00;98669.47;5031654;28;20235;-76
2020/12/17 10:45:27;;;;;;;2.30;1.70;;;;;;;11.57;100.00;98673.72;5032169;28;20730;-76
2020/12/17 10:47:54;;;;;;;5.90;2.00;;;;;;;11.61;100.00;98668.03;5033530;28;20271;-75
2020/12/17 10:50:21;;;;;;;5.73;1.80;;;;;;;11.73;100.00;98674.53;5039066;28;20266;-75
2020/12/17 10:52:47;;;;;;;2.97;1.60;;;;;;;11.80;100.00;98667.41;5034359;28;20217;-75
2020/12/17 10:55:14;;;;;;;3.03;1.77;;;;;;;11.68;100.00;98679.63;5033854;28;20297;-78
2020/12/17 10:57:42;;;;;;;2.43;1.63;;;;;;;11.96;100.00;98677.81;5033305;28;20225;-75
2020/12/17 11:00:09;;;;;;;2.43;1.70;;;;;;;11.98;100.00;98673.94;5031912;28;20202;-81
2020/12/17 11:02:35;;;;;;;4.43;1.73;;;;;;;12.07;100.00;98681.63;5030414;28;20225;-75
2020/12/17 11:05:03;;;;;;;3.33;1.87;;;;;;;12.30;100.00;98685.91;5031650;28;20287;-76
2020/12/17 11:07:29;;;;;;;3.23;1.77;;;;;;;12.75;100.00;98680.84;5031928;28;20218;-74
2020/12/17 11:09:56;;;;;;;3.70;1.60;;;;;;;12.76;100.00;98681.69;5031309;28;20279;-74
2020/12/17 11:12:23;;;;;;;4.27;1.70;;;;;;;12.43;100.00;98688.66;5030572;28;20202;-75
2020/12/17 11:14:51;;;;;;;7.40;2.10;;;;;;;12.79;100.00;98679.41;5032657;28;20306;-75
2020/12/17 11:17:18;;;;;;;3.07;1.67;;;;;;;12.84;100.00;98679.66;5027892;28;20235;-73
2020/12/17 11:19:44;;;;;;;4.97;1.70;;;;;;;12.57;100.00;98680.50;5036916;28;20222;-76
2020/12/17 11:22:11;;;;;;;2.23;1.67;;;;;;;12.05;100.00;98682.81;5036283;28;20222;-79
2020/12/17 11:24:38;;;;;;;5.10;1.97;;;;;;;12.56;100.00;98684.22;5036167;28;20204;-75
2020/12/17 11:27:05;;;;;;;2.30;1.57;;;;;;;12.61;100.00;98684.47;5035292;28;20737;-75
2020/12/17 11:29:32;;;;;;;2.47;1.63;;;;;;;12.33;100.00;98687.16;5036164;28;20203;-74
2020/12/17 11:31:59;;;;;;;2.60;1.60;;;;;;;12.22;100.00;98684.22;5033692;28;20213;-76
2020/12/17 11:34:26;;;;;;;3.53;1.77;;;;;;;12.26;100.00;98684.66;5035853;28;20200;-76
2020/12/17 11:36:53;;;;;;;3.37;2.00;;;;;;;12.33;100.00;98689.84;5034574;28;20843;-75
2020/12/17 11:39:20;;;;;;;4.50;1.73;;;;;;;12.48;100.00;98693.22;5034208;28;20286;-78
2020/12/17 11:41:48;;;;;;;2.07;1.73;;;;;;;12.12;100.00;98691.75;5036589;28;20222;-77
2020/12/17 11:44:15;;;;;;;2.00;1.63;;;;;;;12.06;100.00;98689.81;5035949;28;20644;-75
2020/12/17 11:46:41;;;;;;;3.30;1.53;;;;;;;12.07;100.00;98696.84;5035522;28;20268;-75
2020/12/17 11:49:11;;;;;;;6.67;1.90;;;;;;;12.68;100.00;98692.53;5029891;28;20245;-74
2020/12/17 11:51:38;;;;;;;8.67;2.60;;;;;;;12.78;100.00;98697.34;5038609;28;20606;-81
2020/12/17 11:54:05;;;;;;;7.17;3.37;;;;;;;13.21;100.00;98687.25;5040160;28;20214;-79
2020/12/17 11:56:32;;;;;;;6.17;2.17;;;;;;;13.13;100.00;98689.28;5040734;28;20194;-78
2020/12/17 11:58:59;;;;;;;2.63;2.00;;;;;;;13.31;100.00;98690.38;5037247;28;20231;-77
2020/12/17 12:01:29;;;;;;;2.43;1.87;;;;;;;13.26;100.00;98692.84;5040283;28;20230;-76
2020/12/17 12:03:56;;;;;;;3.03;1.87;;;;;;;13.20;100.00;98693.66;5042663;28;20202;-79
2020/12/17 12:06:24;;;;;;;2.53;1.80;;;;;;;12.27;100.00;98695.97;5038457;28;20296;-75
2020/12/17 12:08:51;;;;;;;12.03;5.43;;;;;;;12.23;100.00;98708.09;5039423;28;20228;-72
2020/12/17 12:11:18;;;;;;;3.63;2.20;;;;;;;12.41;100.00;98698.75;5035006;28;20199;-75
2020/12/17 12:13:45;;;;;;;2.37;1.70;;;;;;;12.24;100.00;98708.94;5039536;28;20290;-76
2020/12/17 12:16:12;;;;;;;3.83;2.10;;;;;;;12.37;100.00;98698.34;5042158;28;20209;-77